< < Back
Terminal Aerodrome Forecast


Current Version              Previous Versions:   1  2  3  4  5  6  7  8  9  

Terminal Aerodrome Forecast

513
FTUS42 KTAE 242300
TAFABY
TAF
KABY 242320Z 2500/2524 00000KT P6SM SCT070
     FM250600 23004KT 6SM BR SKC
     FM251000 22004KT 5SM BR BKN015
     FM251400 27010G15KT P6SM SCT035=



Latest METAR

465
SAUS70 KWBC 250900 RRF
MTRABY
METAR KABY 250853Z 00000KT 7SM OVC013 18/17 A2996 RMK AO2 SLP142
T01830172 50006


USA.gov is the U.S. government's official web portal to all federal, state and local government web resources and services.